aviador You're here:

KARA Decoded Metar

LOUISIANA in LA, USA
Report Time2017-03-23 23:53:00
UTC Time2017-03-24 00:08:18
Flight Rules vfr VFR
Wind170° at 11 kt
W.Decomp.*RWY 16: 10.9 kt HW 1.3 kt RCW
W.Rank170° ranks 4
Current wind is above 170° avg. (8.5)
Visibility9999 m
Phenomena:N/A
Clouds:N/A
Expected CloudBase > 4,000 ft AGL from Temp-Dew spread
CeilingNone
Temp25°C (ISA +10)
Dew Point15°C (54% RH)
AAT22.7°C
QNH1020 hPa
Density Alt1,224 ft
Elevation59 ft
Report Wrong Elevation
Raw Report
KARA 232353Z 17011KT 10SM CLR 25/15 A3013 RMK AO2 SLP201 T02500150
10300 20250 55003=

Extra information for KARA:More info

Metar Taf Metar & Taf Last 4 Metars F.Rules Stats Wind Profile Meteogram Temp Stats Airport Information Weather charts Add Link Nearby VenuesMetar ALERT Operation Metar Decoded Social comments

AIRNAV info for KARA